Terminal Aerodrome Forecast
Issued by NWS Boise, ID

Home | Current Version | Previous Version | Text Only | Print | Product List | Glossary On
Versions: 1 2 3 4 5 6 7 8 9 10 11 12 13 14 15 16 17 18
000
FTUS45 KBOI 051141
TAFBOI
TAF
KBOI 051141Z 0512/0612 29010KT P6SM BKN100 OVC200
     FM052100 15012G18KT P6SM VCSH BKN100 OVC200
     FM060600 20006KT P6SM BKN100 OVC200=

USA.gov is the U.S. government's official web portal to all federal, state and local government web resources and services.